createdAt,value
2022-10-11T00:02:01.892Z,12.20
2022-10-11T00:04:28.577Z,10.90
2022-10-11T00:06:55.306Z,12.90
2022-10-11T00:09:21.947Z,12.60
2022-10-11T00:11:48.930Z,11.00
2022-10-11T00:14:15.576Z,11.30
2022-10-11T00:16:44.503Z,11.10
2022-10-11T00:19:11.441Z,13.00
2022-10-11T00:21:38.076Z,10.80
2022-10-11T00:24:05.029Z,10.90
2022-10-11T00:26:31.685Z,11.30
2022-10-11T00:28:58.342Z,10.80
2022-10-11T00:31:24.990Z,13.00
2022-10-11T00:33:52.642Z,10.90
2022-10-11T00:36:19.306Z,10.60
2022-10-11T00:38:46.359Z,12.50
2022-10-11T00:41:13.384Z,10.40
2022-10-11T00:43:40.027Z,13.40
2022-10-11T00:46:18.756Z,10.70
2022-10-11T00:48:57.205Z,10.90
2022-10-11T00:51:29.428Z,10.90
2022-10-11T00:53:56.299Z,11.60
2022-10-11T00:56:25.321Z,10.30
2022-10-11T00:58:53.083Z,10.80
2022-10-11T01:01:19.822Z,10.80
2022-10-11T01:03:46.584Z,12.20
2022-10-11T01:06:14.606Z,12.20
2022-10-11T01:08:41.316Z,11.30
2022-10-11T01:11:10.702Z,11.90
2022-10-11T01:13:37.275Z,12.20
2022-10-11T01:16:25.180Z,12.60
2022-10-11T01:19:03.088Z,11.20
2022-10-11T01:21:29.689Z,11.30
2022-10-11T01:24:08.199Z,11.10
2022-10-11T01:26:54.082Z,10.70
2022-10-11T01:29:30.079Z,11.20
2022-10-11T01:32:08.449Z,11.00
2022-10-11T01:34:41.024Z,11.20
2022-10-11T01:37:13.335Z,11.20
2022-10-11T01:39:51.933Z,11.10
2022-10-11T01:42:19.256Z,11.30
2022-10-11T01:44:46.941Z,11.90
2022-10-11T01:47:14.152Z,11.40
2022-10-11T01:49:41.921Z,10.80
2022-10-11T01:52:08.657Z,12.80
2022-10-11T01:55:09.586Z,10.70
2022-10-11T01:57:48.876Z,12.80
2022-10-11T02:00:17.321Z,11.30
2022-10-11T02:03:13.304Z,11.00
2022-10-11T02:05:43.111Z,11.30
2022-10-11T02:08:09.773Z,11.40
2022-10-11T02:10:36.334Z,12.50
2022-10-11T02:13:08.994Z,12.80
2022-10-11T02:15:37.139Z,11.60
2022-10-11T02:18:06.161Z,11.90
2022-10-11T02:20:34.194Z,11.30
2022-10-11T02:23:03.377Z,12.00
2022-10-11T02:25:32.657Z,11.00
2022-10-11T02:28:00.714Z,13.00
2022-10-11T02:30:27.677Z,11.00
2022-10-11T02:32:54.916Z,11.10
2022-10-11T02:35:23.448Z,11.20
2022-10-11T02:37:57.572Z,10.90
2022-10-11T02:42:54.344Z,11.30
2022-10-11T02:45:25.251Z,11.30
2022-10-11T02:47:52.143Z,11.30
2022-10-11T02:50:18.819Z,11.30
2022-10-11T02:52:45.487Z,11.30
2022-10-11T02:55:12.115Z,11.00
2022-10-11T02:57:38.761Z,11.90
2022-10-11T03:00:05.784Z,11.30
2022-10-11T03:02:32.437Z,11.20
2022-10-11T03:04:59.053Z,11.10
2022-10-11T03:07:25.718Z,10.90
2022-10-11T03:09:52.330Z,11.30
2022-10-11T03:12:19.004Z,10.80
2022-10-11T03:14:45.651Z,11.00
2022-10-11T03:17:35.198Z,13.10
2022-10-11T03:19:58.950Z,12.70
2022-10-11T03:22:25.582Z,11.70
2022-10-11T03:24:52.238Z,12.10
2022-10-11T03:27:18.869Z,12.00
2022-10-11T03:29:45.504Z,12.60
2022-10-11T03:32:12.127Z,13.00
2022-10-11T03:34:38.794Z,11.30
2022-10-11T03:37:05.384Z,12.80
2022-10-11T03:39:32.064Z,11.00
2022-10-11T03:41:58.799Z,11.30
2022-10-11T03:44:25.461Z,11.00
2022-10-11T03:46:52.077Z,11.50
2022-10-11T03:49:19.893Z,12.70
2022-10-11T03:51:46.554Z,11.20
2022-10-11T03:54:13.220Z,10.70
2022-10-11T03:56:39.895Z,12.20
2022-10-11T03:59:06.543Z,11.30
2022-10-11T04:04:04.920Z,11.60
2022-10-11T04:06:31.760Z,12.00
2022-10-11T04:08:58.460Z,12.80
2022-10-11T04:11:25.142Z,11.40
2022-10-11T04:13:51.900Z,11.80
2022-10-11T04:16:18.548Z,11.00
2022-10-11T04:18:45.203Z,12.80
2022-10-11T04:21:11.806Z,13.00
2022-10-11T04:23:38.492Z,11.10
2022-10-11T04:26:07.367Z,11.50
2022-10-11T04:28:34.982Z,11.60
2022-10-11T04:31:01.658Z,12.90
2022-10-11T04:33:28.293Z,12.80
2022-10-11T04:35:56.058Z,13.50
2022-10-11T04:38:23.395Z,13.00
2022-10-11T04:40:50.099Z,11.30
2022-10-11T04:43:17.995Z,11.00
2022-10-11T04:45:44.918Z,12.90
2022-10-11T04:48:11.574Z,11.10
2022-10-11T04:50:38.242Z,12.70
2022-10-11T04:53:04.848Z,10.90
2022-10-11T04:55:31.556Z,11.20
2022-10-11T04:57:58.197Z,11.10
2022-10-11T05:00:24.832Z,10.70
2022-10-11T05:02:52.997Z,11.00
2022-10-11T05:05:19.658Z,11.50
2022-10-11T05:07:46.298Z,12.60
2022-10-11T05:10:12.978Z,11.10
2022-10-11T05:12:39.614Z,10.90
2022-10-11T05:15:06.784Z,10.80
2022-10-11T05:17:33.432Z,11.40
2022-10-11T05:20:00.092Z,10.90
2022-10-11T05:22:27.010Z,10.90
2022-10-11T05:24:53.691Z,12.00
2022-10-11T05:27:20.347Z,11.00
2022-10-11T05:29:46.989Z,12.60
2022-10-11T05:32:13.646Z,11.30
2022-10-11T05:34:40.289Z,11.20
2022-10-11T05:37:06.981Z,11.00
2022-10-11T05:39:33.648Z,13.00
2022-10-11T05:42:00.285Z,12.80
2022-10-11T05:44:26.990Z,12.80
2022-10-11T05:46:53.599Z,11.50
2022-10-11T05:49:20.247Z,11.20
2022-10-11T05:51:46.991Z,12.30
2022-10-11T05:54:13.654Z,11.80
2022-10-11T05:56:40.284Z,11.20
2022-10-11T05:59:06.937Z,11.20
2022-10-11T06:01:33.654Z,13.70
2022-10-11T06:04:00.415Z,12.30
2022-10-11T06:06:27.066Z,11.30
2022-10-11T06:08:53.724Z,13.30
2022-10-11T06:11:27.355Z,11.80
2022-10-11T06:13:54.702Z,11.60
2022-10-11T06:16:21.495Z,13.20
2022-10-11T06:21:15.608Z,11.70
2022-10-11T06:23:42.253Z,13.50
2022-10-11T06:26:09.818Z,11.70
2022-10-11T06:28:36.798Z,12.30
2022-10-11T06:31:04.661Z,13.00
2022-10-11T06:33:31.350Z,12.00
2022-10-11T06:36:02.362Z,11.90
2022-10-11T06:38:29.156Z,12.00
2022-10-11T06:40:55.805Z,13.50
2022-10-11T06:43:22.816Z,13.30
2022-10-11T06:50:58.980Z,12.10
2022-10-11T06:53:27.639Z,12.00
2022-10-11T06:55:54.326Z,13.70
2022-10-11T06:58:21.048Z,12.10
2022-10-11T07:00:47.718Z,14.20
2022-10-11T07:03:14.355Z,13.70
2022-10-11T07:08:07.998Z,12.20
2022-10-11T07:10:35.257Z,13.10
2022-10-11T07:15:28.892Z,12.30
2022-10-11T07:17:55.549Z,12.40
2022-10-11T07:20:22.166Z,12.80
2022-10-11T07:25:15.818Z,12.60
2022-10-11T07:27:42.452Z,12.60
2022-10-11T07:30:09.303Z,13.70
2022-10-11T07:32:35.972Z,12.70
2022-10-11T07:37:30.687Z,12.80
2022-10-11T07:39:57.348Z,12.90
2022-10-11T07:42:23.982Z,13.40
2022-10-11T07:44:50.629Z,13.10
2022-10-11T07:47:17.288Z,12.90
2022-10-11T07:49:43.920Z,12.90
2022-10-11T07:52:10.569Z,13.00
2022-10-11T07:54:37.904Z,12.90
2022-10-11T07:57:04.550Z,13.60
2022-10-11T07:59:31.612Z,13.60
2022-10-11T08:01:58.340Z,13.10
2022-10-11T08:04:25.006Z,13.50
2022-10-11T08:06:53.438Z,13.00
2022-10-11T08:09:20.304Z,13.00
2022-10-11T08:11:46.949Z,13.60
2022-10-11T08:14:13.597Z,13.20
2022-10-11T08:16:40.917Z,13.00
2022-10-11T08:21:34.899Z,13.20
2022-10-11T08:24:02.159Z,13.30
2022-10-11T08:26:28.805Z,13.20
2022-10-11T08:28:55.552Z,13.10
2022-10-11T08:31:22.383Z,14.90
2022-10-11T08:33:49.185Z,12.50
2022-10-11T08:38:42.932Z,13.40
2022-10-11T08:41:21.769Z,13.40
2022-10-11T08:43:56.528Z,13.50
2022-10-11T08:46:25.797Z,13.60
2022-10-11T08:48:52.636Z,13.40
2022-10-11T08:51:29.324Z,13.50
2022-10-11T08:56:25.711Z,14.00
2022-10-11T08:58:52.361Z,14.20
2022-10-11T09:01:23.412Z,14.70
2022-10-11T09:03:50.565Z,14.60
2022-10-11T09:06:20.369Z,14.50
2022-10-11T09:09:05.215Z,14.50
2022-10-11T09:11:31.893Z,14.60
2022-10-11T09:13:58.553Z,14.40
2022-10-11T09:16:25.350Z,14.40
2022-10-11T09:19:10.772Z,14.40
2022-10-11T09:21:47.680Z,14.40
2022-10-11T09:24:36.882Z,14.50
2022-10-11T09:27:37.868Z,14.40
2022-10-11T09:30:16.910Z,14.30
2022-10-11T09:32:50.567Z,14.40
2022-10-11T09:35:18.566Z,14.40
2022-10-11T09:37:52.969Z,14.40
2022-10-11T09:40:31.826Z,14.50
2022-10-11T09:42:59.476Z,14.60
2022-10-11T09:45:26.123Z,15.40
2022-10-11T09:47:53.650Z,14.70
2022-10-11T09:50:21.830Z,14.70
2022-10-11T09:52:49.430Z,15.20
2022-10-11T09:55:36.299Z,15.20
2022-10-11T09:58:04.778Z,15.30
2022-10-11T10:00:33.739Z,16.40
2022-10-11T10:03:02.054Z,15.70
2022-10-11T10:05:32.974Z,15.80
2022-10-11T10:08:20.237Z,15.00
2022-10-11T10:10:55.872Z,15.20
2022-10-11T10:15:55.674Z,15.70
2022-10-11T10:18:42.533Z,15.80
2022-10-11T10:21:10.975Z,15.50
2022-10-11T10:23:37.741Z,16.40
2022-10-11T10:26:11.507Z,16.50
2022-10-11T10:28:38.621Z,16.70
2022-10-11T10:33:35.532Z,17.10
2022-10-11T10:36:34.727Z,17.10
2022-10-11T10:39:04.420Z,17.10
2022-10-11T10:41:31.137Z,16.80
2022-10-11T10:43:59.148Z,16.90
2022-10-11T10:46:25.934Z,16.40
2022-10-11T10:52:03.310Z,16.40
2022-10-11T10:54:45.912Z,16.70
2022-10-11T10:57:31.461Z,16.80
2022-10-11T10:59:58.055Z,16.80
2022-10-11T11:22:31.831Z,18.00
2022-10-11T11:24:59.239Z,18.10
2022-10-11T11:27:46.772Z,18.40
2022-10-11T11:32:52.356Z,17.10
2022-10-11T11:35:39.123Z,18.30
2022-10-11T11:52:58.203Z,17.00
2022-10-11T11:55:24.804Z,16.90
2022-10-11T11:58:10.243Z,17.20
2022-10-11T12:00:57.144Z,16.50
2022-10-11T12:03:25.536Z,17.10
2022-10-11T12:06:18.671Z,16.10
2022-10-11T12:08:55.441Z,16.30
2022-10-11T12:11:25.412Z,16.20
2022-10-11T12:13:53.050Z,16.70
2022-10-11T12:16:20.380Z,16.50
2022-10-11T12:18:51.819Z,17.10
2022-10-11T12:21:21.759Z,16.70
2022-10-11T12:23:53.152Z,16.60
2022-10-11T12:26:28.935Z,16.80
2022-10-11T12:29:04.698Z,16.70
2022-10-11T12:31:32.750Z,16.80
2022-10-11T12:34:02.421Z,17.10
2022-10-11T12:36:31.944Z,16.90
2022-10-11T12:39:17.424Z,17.30
2022-10-11T12:41:47.092Z,17.10
2022-10-11T12:44:26.808Z,16.90
2022-10-11T12:46:53.695Z,16.90
2022-10-11T12:49:39.778Z,17.50
2022-10-11T12:52:09.463Z,17.10
2022-10-11T12:54:54.927Z,17.00
2022-10-11T12:57:30.727Z,17.20
2022-10-11T13:00:07.766Z,17.10
2022-10-11T13:02:42.644Z,17.60
2022-10-11T13:05:15.290Z,17.20
2022-10-11T13:07:42.069Z,17.20
2022-10-11T13:10:13.502Z,17.40
2022-10-11T13:12:41.938Z,17.20
2022-10-11T13:15:13.065Z,17.60
2022-10-11T13:17:40.613Z,17.40
2022-10-11T13:20:13.206Z,17.70
2022-10-11T13:22:40.488Z,17.40
2022-10-11T13:25:08.356Z,17.70
2022-10-11T13:27:36.921Z,17.80
2022-10-11T13:30:05.545Z,17.90
2022-10-11T13:32:32.398Z,18.20
2022-10-11T13:35:01.666Z,18.60
2022-10-11T13:37:29.046Z,18.80
2022-10-11T13:39:56.441Z,19.20
2022-10-11T13:42:30.739Z,20.00
2022-10-11T13:44:58.459Z,21.60
2022-10-11T13:47:27.176Z,22.50
2022-10-11T13:50:33.838Z,22.50
2022-10-11T13:55:29.163Z,23.60
2022-10-11T13:57:56.810Z,23.70
2022-10-11T14:00:25.781Z,24.20
2022-10-11T14:02:56.212Z,24.60
2022-10-11T14:05:25.246Z,24.90
2022-10-11T14:07:51.966Z,24.90
2022-10-11T14:12:56.908Z,24.20
2022-10-11T14:15:31.055Z,24.60
2022-10-11T14:17:57.951Z,24.60
2022-10-11T14:20:32.261Z,24.60
2022-10-11T14:23:00.123Z,23.80
2022-10-11T14:25:26.780Z,24.60
2022-10-11T14:27:54.610Z,24.20
2022-10-11T14:30:27.330Z,24.00
2022-10-11T14:32:55.716Z,23.20
2022-10-11T14:35:24.140Z,22.90
2022-10-11T14:37:51.045Z,22.90
2022-10-11T14:40:31.497Z,22.00
2022-10-11T14:42:58.289Z,21.60
2022-10-11T14:45:24.942Z,20.60
2022-10-11T14:47:51.996Z,20.60
2022-10-11T14:50:23.339Z,21.40
2022-10-11T14:52:50.000Z,21.00
2022-10-11T14:55:16.733Z,21.20
2022-10-11T14:57:43.396Z,21.50
2022-10-11T15:05:04.107Z,20.20
2022-10-11T15:07:30.665Z,19.60
2022-10-11T15:12:24.245Z,19.50
2022-10-11T15:14:50.801Z,19.90
2022-10-11T15:17:17.508Z,19.40
2022-10-11T15:19:44.063Z,19.30
2022-10-11T15:22:10.640Z,18.50
2022-10-11T15:24:37.220Z,17.80
2022-10-11T15:27:03.791Z,17.70
2022-10-11T15:29:30.347Z,17.70
2022-10-11T15:31:56.932Z,17.50
2022-10-11T15:34:23.469Z,16.80
2022-10-11T15:36:50.099Z,16.50
2022-10-11T15:51:34.976Z,15.60
2022-10-11T16:08:48.254Z,15.10
2022-10-11T16:13:42.380Z,14.90
2022-10-11T16:16:11.103Z,14.90
2022-10-11T16:18:37.817Z,14.90
2022-10-11T16:21:09.792Z,15.00
2022-10-11T16:23:36.896Z,14.70
2022-10-11T16:26:05.283Z,14.90
2022-10-11T16:30:59.215Z,14.30
2022-10-11T16:33:26.559Z,14.80
2022-10-11T16:35:53.284Z,14.50
2022-10-11T16:38:19.899Z,14.40
2022-10-11T16:40:46.532Z,13.90
2022-10-11T16:43:13.201Z,13.80
2022-10-11T16:45:39.825Z,14.50
2022-10-11T16:48:06.407Z,13.00
2022-10-11T16:50:36.961Z,13.70
2022-10-11T16:53:05.982Z,14.10
2022-10-11T16:55:32.595Z,14.10
2022-10-11T16:57:59.144Z,12.20
2022-10-11T17:00:25.772Z,12.50
2022-10-11T17:02:52.446Z,14.10
2022-10-11T17:05:19.040Z,14.10
2022-10-11T17:07:45.635Z,14.50
2022-10-11T17:10:12.271Z,14.00
2022-10-11T17:12:38.896Z,13.00
2022-10-11T17:15:06.116Z,13.20
2022-10-11T17:17:32.714Z,12.10
2022-10-11T17:19:59.380Z,12.70
2022-10-11T17:22:26.134Z,13.30
2022-10-11T17:24:52.781Z,13.30
2022-10-11T17:27:19.341Z,13.20
2022-10-11T17:29:45.954Z,13.00
2022-10-11T17:32:15.747Z,13.10
2022-10-11T17:37:10.087Z,11.80
2022-10-11T17:39:36.782Z,12.70
2022-10-11T17:42:07.284Z,12.80
2022-10-11T17:44:34.547Z,11.80
2022-10-11T17:47:02.496Z,11.70
2022-10-11T17:49:29.096Z,10.90
2022-10-11T17:51:56.611Z,10.70
2022-10-11T17:54:23.339Z,10.50
2022-10-11T17:59:18.139Z,10.90
2022-10-11T18:01:44.759Z,12.50
2022-10-11T18:04:16.851Z,12.00
2022-10-11T18:06:45.070Z,11.70
2022-10-11T18:09:12.637Z,10.60
2022-10-11T18:11:39.337Z,12.80
2022-10-11T18:14:05.956Z,12.30
2022-10-11T18:16:32.747Z,10.70
2022-10-11T18:19:01.496Z,11.00
2022-10-11T18:21:33.573Z,10.80
2022-10-11T18:24:01.814Z,12.80
2022-10-11T18:26:30.765Z,12.30
2022-10-11T18:28:58.013Z,10.50
2022-10-11T18:33:52.837Z,10.50
2022-10-11T18:38:47.098Z,10.30
2022-10-11T18:41:15.071Z,10.30
2022-10-11T18:43:41.651Z,10.10
2022-10-11T18:46:09.673Z,10.00
2022-10-11T18:48:36.266Z,9.90
2022-10-11T18:51:04.653Z,9.80
2022-10-11T18:53:31.940Z,9.70
2022-10-11T18:55:59.855Z,9.90
2022-10-11T18:58:26.474Z,10.00
2022-10-11T19:00:53.135Z,10.00
2022-10-11T19:03:19.730Z,10.10
2022-10-11T19:05:46.282Z,9.90
2022-10-11T19:08:12.910Z,9.70
2022-10-11T19:10:39.450Z,9.80
2022-10-11T19:13:06.019Z,9.90
2022-10-11T19:15:35.554Z,9.90
2022-10-11T19:18:02.125Z,10.00
2022-10-11T19:20:28.660Z,9.90
2022-10-11T19:22:55.228Z,9.90
2022-10-11T19:25:21.762Z,9.90
2022-10-11T19:27:48.320Z,9.80
2022-10-11T19:30:14.872Z,9.50
2022-10-11T19:32:41.419Z,9.40
2022-10-11T19:35:08.235Z,9.40
2022-10-11T19:37:35.194Z,9.50
2022-10-11T19:40:03.870Z,9.70
2022-10-11T19:42:30.766Z,9.40
2022-10-11T19:44:57.575Z,9.30
2022-10-11T19:47:24.167Z,9.40
2022-10-11T19:49:50.715Z,9.40
2022-10-11T19:54:44.294Z,8.70
2022-10-11T19:57:10.834Z,8.70
2022-10-11T19:59:37.388Z,8.70
2022-10-11T20:02:03.935Z,8.70
2022-10-11T20:07:17.688Z,8.90
2022-10-11T20:09:44.241Z,8.90
2022-10-11T20:12:10.799Z,8.90
2022-10-11T20:14:37.355Z,8.90
2022-10-11T20:17:03.911Z,9.00
2022-10-11T20:19:31.676Z,8.90
2022-10-11T20:21:58.837Z,8.80
2022-10-11T20:24:27.327Z,8.90
2022-10-11T20:26:54.091Z,8.80
2022-10-11T20:29:20.652Z,8.80
2022-10-11T20:31:47.228Z,8.70
2022-10-11T20:34:13.856Z,8.60
2022-10-11T20:36:40.680Z,8.50
2022-10-11T20:39:07.347Z,8.40
2022-10-11T20:41:36.889Z,8.60
2022-10-11T20:44:03.623Z,8.50
2022-10-11T20:46:31.547Z,8.40
2022-10-11T20:49:01.970Z,8.30
2022-10-11T20:51:29.613Z,8.30
2022-10-11T20:53:56.537Z,8.40
2022-10-11T20:56:23.397Z,8.40
2022-10-11T20:58:51.074Z,8.50
2022-10-11T21:01:18.723Z,8.50
2022-10-11T21:03:48.852Z,8.50
2022-10-11T21:06:20.468Z,8.80
2022-10-11T21:08:47.066Z,9.00
2022-10-11T21:11:13.961Z,8.40
2022-10-11T21:13:40.911Z,10.00
2022-10-11T21:16:11.146Z,10.60
2022-10-11T21:18:38.389Z,8.80
2022-10-11T21:21:06.318Z,7.70
2022-10-11T21:23:33.081Z,9.60
2022-10-11T21:26:00.736Z,9.80
2022-10-11T21:28:27.392Z,10.50
2022-10-11T21:30:54.064Z,10.20
2022-10-11T21:33:20.730Z,9.80
2022-10-11T21:35:47.362Z,8.00
2022-10-11T21:38:14.007Z,9.40
2022-10-11T21:40:40.657Z,10.00
2022-10-11T21:43:07.632Z,9.70
2022-10-11T21:45:38.105Z,7.80
2022-10-11T21:48:05.034Z,8.70
2022-10-11T21:50:31.912Z,8.60
2022-10-11T21:52:58.562Z,10.70
2022-10-11T21:55:26.063Z,9.70
2022-10-11T21:57:52.690Z,10.30
2022-10-11T22:00:19.292Z,8.70
2022-10-11T22:02:47.542Z,8.30
2022-10-11T22:05:14.195Z,9.10
2022-10-11T22:07:40.895Z,8.80
2022-10-11T22:10:07.665Z,8.30
2022-10-11T22:12:34.619Z,8.70
2022-10-11T22:15:01.562Z,8.40
2022-10-11T22:17:28.174Z,8.50
2022-10-11T22:19:54.825Z,8.60
2022-10-11T22:22:21.482Z,7.90
2022-10-11T22:24:48.128Z,10.20
2022-10-11T22:27:14.756Z,10.40
2022-10-11T22:29:41.515Z,8.10
2022-10-11T22:32:08.103Z,8.30
2022-10-11T22:34:34.731Z,8.60
2022-10-11T22:37:01.376Z,9.50
2022-10-11T22:39:28.081Z,10.30
2022-10-11T22:41:54.864Z,8.40
2022-10-11T22:44:22.177Z,9.60
2022-10-11T22:46:48.788Z,7.90
2022-10-11T22:51:42.441Z,8.10
2022-10-11T22:54:09.088Z,8.10
2022-10-11T22:56:35.759Z,9.10
2022-10-11T22:59:02.398Z,8.10
2022-10-11T23:01:28.988Z,8.00
2022-10-11T23:03:56.469Z,8.00
2022-10-11T23:08:50.267Z,7.90
2022-10-11T23:11:17.230Z,7.80
2022-10-11T23:13:43.883Z,7.60
2022-10-11T23:16:11.552Z,7.80
2022-10-11T23:18:38.375Z,8.50
2022-10-11T23:21:05.745Z,7.40
2022-10-11T23:26:00.222Z,7.50
2022-10-11T23:28:26.930Z,7.40
2022-10-11T23:30:53.609Z,7.50
2022-10-11T23:33:20.260Z,7.50
2022-10-11T23:35:46.959Z,7.10
2022-10-11T23:38:13.590Z,7.50
2022-10-11T23:40:40.206Z,7.40
2022-10-11T23:43:06.849Z,7.10
2022-10-11T23:45:33.508Z,7.20
2022-10-11T23:48:00.163Z,8.20
2022-10-11T23:50:26.803Z,7.00
